Kezdőlap
METAR-TAF:

METAR-TAF

Repülőterek :

Prairie du Chien Municipal Airport

Prairie du Chien, Wisconsin, Amerikai Egyesült Államok

földrajzi szélesség: 43-01-19N, földrajzi hosszúság: 091-07-29W, magasság: 201 m

Jelenlegi meteorológiai megfigyelések

A jelentés 21 perccel ezelõtt készült, 20:55 UTC
Északi szél 6 kt
Hőmérséklet 18°C
Páratartalom 42%
Légköri nyomás 1023 hPa
Látótávolság: 16.1 km
Szórványos felhőzet 6000 lábon

METAR: KPDC 222055Z AUTO 36006KT 10SM SCT060 18/05 A3021 RMK AO2 T01810046

Idő: 16:16 (21:16 UTC)


TAF: hiányzik

Meteorológiai megfigyelések és előrejelzések több, mint 4000 repülőtéren (METAR és TAF jelentéseket).

A térképen piros és sárga pontok jelzik az elérhető meteorológiai állomásokat.

Mozgassa az egeret a pont fölött, hogy megjelenjen az állomás neve.

Azután kattintson az időjárási megfigyelések és előrejelzések megtekintéséhez.

A térkép megváltoztatása: kattintson a fekete keresztel jelölt zöld gombra ráközelítéshez, a vonallal jelölt zöld gombra távolításhoz, vagy a zöld nyilakra a szomszédos térképek eléréséhez.


METAR-TAF: